createdAt,value
2023-04-11T00:00:00.669Z,9.50
2023-04-11T00:02:27.486Z,9.40
2023-04-11T00:04:55.024Z,9.40
2023-04-11T00:07:21.895Z,9.40
2023-04-11T00:09:49.601Z,9.40
2023-04-11T00:12:16.875Z,9.40
2023-04-11T00:14:45.391Z,9.50
2023-04-11T00:17:12.523Z,9.40
2023-04-11T00:19:40.116Z,9.50
2023-04-11T00:22:09.386Z,9.40
2023-04-11T00:24:36.370Z,9.50
2023-04-11T00:27:03.316Z,9.50
2023-04-11T00:29:30.495Z,9.50
2023-04-11T00:31:57.330Z,9.50
2023-04-11T00:34:24.083Z,9.50
2023-04-11T00:36:51.068Z,9.50
2023-04-11T00:39:18.463Z,9.50
2023-04-11T00:41:45.209Z,9.50
2023-04-11T00:44:13.479Z,9.40
2023-04-11T00:46:45.535Z,9.40
2023-04-11T00:49:13.357Z,9.40
2023-04-11T00:51:40.248Z,9.40
2023-04-11T00:54:10.172Z,9.40
2023-04-11T00:56:37.053Z,9.40
2023-04-11T00:59:03.818Z,9.40
2023-04-11T01:01:36.508Z,9.40
2023-04-11T01:04:03.828Z,9.40
2023-04-11T01:06:33.658Z,9.40
2023-04-11T01:09:00.524Z,9.30
2023-04-11T01:11:27.536Z,9.30
2023-04-11T01:13:55.520Z,9.40
2023-04-11T01:16:22.465Z,9.40
2023-04-11T01:18:49.730Z,9.40
2023-04-11T01:21:19.572Z,9.40
2023-04-11T01:23:49.246Z,9.40
2023-04-11T01:26:16.265Z,9.40
2023-04-11T01:28:43.017Z,9.40
2023-04-11T01:31:10.803Z,9.40
2023-04-11T01:33:37.983Z,9.50
2023-04-11T01:36:05.651Z,9.50
2023-04-11T01:38:32.477Z,9.40
2023-04-11T01:41:00.097Z,9.40
2023-04-11T01:43:26.961Z,9.40
2023-04-11T01:45:56.152Z,9.40
2023-04-11T01:48:22.974Z,9.40
2023-04-11T01:50:51.374Z,9.40
2023-04-11T01:53:18.143Z,9.40
2023-04-11T01:55:44.874Z,9.50
2023-04-11T01:58:12.629Z,9.50
2023-04-11T02:00:39.544Z,9.60
2023-04-11T02:03:06.515Z,9.60
2023-04-11T02:05:33.370Z,9.50
2023-04-11T02:08:02.926Z,9.50
2023-04-11T02:10:29.820Z,9.50
2023-04-11T02:12:56.562Z,9.50
2023-04-11T02:15:23.538Z,9.40
2023-04-11T02:17:53.921Z,9.40
2023-04-11T02:20:24.037Z,9.40
2023-04-11T02:22:50.741Z,9.40
2023-04-11T02:25:17.804Z,9.40
2023-04-11T02:27:44.562Z,9.40
2023-04-11T02:30:18.806Z,9.40
2023-04-11T02:32:46.568Z,9.40
2023-04-11T02:35:13.427Z,9.40
2023-04-11T02:37:40.126Z,9.30
2023-04-11T02:40:08.131Z,9.30
2023-04-11T02:42:35.627Z,9.30
2023-04-11T02:45:02.573Z,9.30
2023-04-11T02:47:29.341Z,9.30
2023-04-11T02:49:56.104Z,9.30
2023-04-11T02:52:22.818Z,9.20
2023-04-11T02:54:49.614Z,9.20
2023-04-11T02:57:17.616Z,9.20
2023-04-11T02:59:44.320Z,9.10
2023-04-11T03:02:11.188Z,9.10
2023-04-11T03:04:38.117Z,9.20
2023-04-11T03:07:04.973Z,9.10
2023-04-11T03:09:32.945Z,9.20
2023-04-11T03:11:59.624Z,9.20
2023-04-11T03:14:26.342Z,9.20
2023-04-11T03:16:53.083Z,9.20
2023-04-11T03:19:19.846Z,9.20
2023-04-11T03:21:46.575Z,9.20
2023-04-11T03:24:14.968Z,9.10
2023-04-11T03:26:41.773Z,9.10
2023-04-11T03:29:08.585Z,9.10
2023-04-11T03:31:36.095Z,9.10
2023-04-11T03:34:02.826Z,9.10
2023-04-11T03:36:29.900Z,9.10
2023-04-11T03:38:56.848Z,9.00
2023-04-11T03:41:23.733Z,9.00
2023-04-11T03:43:55.861Z,9.00
2023-04-11T03:46:26.125Z,8.90
2023-04-11T03:48:53.287Z,8.90
2023-04-11T03:51:20.233Z,8.90
2023-04-11T03:53:49.719Z,8.80
2023-04-11T03:56:16.722Z,8.80
2023-04-11T03:58:43.515Z,8.80
2023-04-11T04:01:10.763Z,8.80
2023-04-11T04:03:37.931Z,8.80
2023-04-11T04:06:05.304Z,8.70
2023-04-11T04:08:32.322Z,8.70
2023-04-11T04:10:59.130Z,8.70
2023-04-11T04:13:27.981Z,8.70
2023-04-11T04:15:54.768Z,8.60
2023-04-11T04:18:21.542Z,8.60
2023-04-11T04:20:49.149Z,8.60
2023-04-11T04:23:17.952Z,8.50
2023-04-11T04:25:49.803Z,8.50
2023-04-11T04:28:20.404Z,8.50
2023-04-11T04:31:01.507Z,8.50
2023-04-11T04:33:28.252Z,8.50
2023-04-11T04:35:58.112Z,8.40
2023-04-11T04:38:28.342Z,8.40
2023-04-11T04:40:55.068Z,8.40
2023-04-11T04:43:24.154Z,8.40
2023-04-11T04:45:51.235Z,8.40
2023-04-11T04:48:18.193Z,8.30
2023-04-11T04:50:45.792Z,8.30
2023-04-11T04:53:12.680Z,8.30
2023-04-11T04:55:39.515Z,8.30
2023-04-11T04:58:06.369Z,8.20
2023-04-11T05:00:33.654Z,8.20
2023-04-11T05:03:00.769Z,8.20
2023-04-11T05:05:27.641Z,8.10
2023-04-11T05:07:54.325Z,8.20
2023-04-11T05:10:21.186Z,8.20
2023-04-11T05:12:49.149Z,8.10
2023-04-11T05:15:22.860Z,8.10
2023-04-11T05:17:49.692Z,8.10
2023-04-11T05:20:16.634Z,8.10
2023-04-11T05:22:43.406Z,8.10
2023-04-11T05:25:11.597Z,8.10
2023-04-11T05:27:38.416Z,8.10
2023-04-11T05:30:06.882Z,8.10
2023-04-11T05:32:35.894Z,8.10
2023-04-11T05:35:02.816Z,8.10
2023-04-11T05:37:31.234Z,8.10
2023-04-11T05:39:58.590Z,8.10
2023-04-11T05:42:27.885Z,8.20
2023-04-11T05:44:54.626Z,8.10
2023-04-11T05:47:21.362Z,8.10
2023-04-11T05:49:48.658Z,8.20
2023-04-11T05:52:15.457Z,8.20
2023-04-11T05:54:47.621Z,8.20
2023-04-11T05:57:14.464Z,8.30
2023-04-11T05:59:41.209Z,8.30
2023-04-11T06:02:08.023Z,8.40
2023-04-11T06:04:35.111Z,8.40
2023-04-11T06:07:04.153Z,8.40
2023-04-11T06:09:33.832Z,8.50
2023-04-11T06:12:01.439Z,8.60
2023-04-11T06:14:28.215Z,8.60
2023-04-11T06:17:03.252Z,8.60
2023-04-11T06:19:31.314Z,8.60
2023-04-11T06:21:58.201Z,8.70
2023-04-11T06:24:40.933Z,8.70
2023-04-11T06:27:11.453Z,8.70
2023-04-11T06:29:39.055Z,8.80
2023-04-11T06:32:13.962Z,8.80
2023-04-11T06:34:41.458Z,8.90
2023-04-11T06:37:09.291Z,8.90
2023-04-11T06:39:36.193Z,8.90
2023-04-11T06:42:03.623Z,8.90
2023-04-11T06:44:31.179Z,9.00
2023-04-11T06:46:59.203Z,9.00
2023-04-11T06:49:28.466Z,9.00
2023-04-11T06:51:55.882Z,9.10
2023-04-11T06:54:23.754Z,9.10
2023-04-11T06:56:53.381Z,9.10
2023-04-11T06:59:20.713Z,9.10
2023-04-11T07:01:49.514Z,9.10
2023-04-11T07:04:17.071Z,9.10
2023-04-11T07:06:44.061Z,9.20
2023-04-11T07:09:12.465Z,9.20
2023-04-11T07:11:39.338Z,9.30
2023-04-11T07:14:07.604Z,9.40
2023-04-11T07:16:34.480Z,9.40
2023-04-11T07:19:03.065Z,9.50
2023-04-11T07:21:32.067Z,9.40
2023-04-11T07:24:00.569Z,9.40
2023-04-11T07:26:31.940Z,9.50
2023-04-11T07:29:03.055Z,9.40
2023-04-11T07:31:31.944Z,9.50
2023-04-11T07:33:58.986Z,9.60
2023-04-11T07:36:26.670Z,9.60
2023-04-11T07:38:54.417Z,9.60
2023-04-11T07:41:21.383Z,9.70
2023-04-11T07:43:48.153Z,9.70
2023-04-11T07:46:15.200Z,9.70
2023-04-11T07:48:42.924Z,9.70
2023-04-11T07:51:09.816Z,9.50
2023-04-11T07:53:36.580Z,9.50
2023-04-11T07:56:04.901Z,9.40
2023-04-11T07:58:32.076Z,9.40
2023-04-11T08:00:59.039Z,9.40
2023-04-11T08:03:26.910Z,9.40
2023-04-11T08:05:54.277Z,9.50
2023-04-11T08:08:21.062Z,9.60
2023-04-11T08:10:49.129Z,9.80
2023-04-11T08:13:17.380Z,10.10
2023-04-11T08:15:44.184Z,10.40
2023-04-11T08:18:12.179Z,10.60
2023-04-11T08:20:40.628Z,10.60
2023-04-11T08:23:08.716Z,10.70
2023-04-11T08:25:36.499Z,10.60
2023-04-11T08:28:05.302Z,10.60
2023-04-11T08:30:35.668Z,10.80
2023-04-11T08:33:02.478Z,10.60
2023-04-11T08:35:29.396Z,10.40
2023-04-11T08:37:56.122Z,10.40
2023-04-11T08:40:24.129Z,10.10
2023-04-11T08:43:00.236Z,9.90
2023-04-11T08:45:28.672Z,10.20
2023-04-11T08:47:55.443Z,10.70
2023-04-11T08:50:22.382Z,11.00
2023-04-11T08:52:51.608Z,11.10
2023-04-11T08:55:18.323Z,11.00
2023-04-11T08:57:46.110Z,11.50
2023-04-11T09:00:15.329Z,11.60
2023-04-11T09:03:01.698Z,11.80
2023-04-11T09:05:40.506Z,11.70
2023-04-11T09:08:14.461Z,11.50
2023-04-11T09:10:47.574Z,11.30
2023-04-11T09:13:25.182Z,11.20
2023-04-11T09:16:13.953Z,11.60
2023-04-11T09:18:50.125Z,11.70
2023-04-11T09:21:19.550Z,11.90
2023-04-11T09:23:46.626Z,12.00
2023-04-11T09:26:26.504Z,11.90
2023-04-11T09:28:54.019Z,12.20
2023-04-11T09:31:39.781Z,12.40
2023-04-11T09:34:06.815Z,12.50
2023-04-11T09:36:33.680Z,12.20
2023-04-11T09:39:15.021Z,12.20
2023-04-11T09:41:41.828Z,11.80
2023-04-11T09:44:08.549Z,11.60
2023-04-11T09:46:37.307Z,11.80
2023-04-11T09:49:04.516Z,11.70
2023-04-11T09:51:36.591Z,11.90
2023-04-11T09:54:05.436Z,11.50
2023-04-11T09:56:36.663Z,11.00
2023-04-11T09:59:05.180Z,11.00
2023-04-11T10:01:33.926Z,11.20
2023-04-11T10:04:04.438Z,11.20
2023-04-11T10:06:45.626Z,11.40
2023-04-11T10:09:14.906Z,11.30
2023-04-11T10:11:45.385Z,11.10
2023-04-11T10:14:38.616Z,11.00
2023-04-11T10:17:32.494Z,11.30
2023-04-11T10:19:59.564Z,11.50
2023-04-11T10:22:41.714Z,11.50
2023-04-11T10:25:27.399Z,11.70
2023-04-11T10:28:01.198Z,11.70
2023-04-11T10:30:40.441Z,11.80
2023-04-11T10:33:19.666Z,12.00
2023-04-11T10:36:18.180Z,12.30
2023-04-11T10:38:47.522Z,12.30
2023-04-11T10:41:31.272Z,12.40
2023-04-11T10:44:20.842Z,12.30
2023-04-11T10:46:55.704Z,12.30
2023-04-11T10:49:52.278Z,12.30
2023-04-11T10:52:24.120Z,12.50
2023-04-11T10:54:53.829Z,12.30
2023-04-11T10:57:21.617Z,12.30
2023-04-11T10:59:51.509Z,12.50
2023-04-11T11:02:21.978Z,12.50
2023-04-11T11:04:49.430Z,12.40
2023-04-11T11:07:17.248Z,12.30
2023-04-11T11:09:51.048Z,12.50
2023-04-11T11:12:18.146Z,12.70
2023-04-11T11:14:47.974Z,12.60
2023-04-11T11:17:16.980Z,12.50
2023-04-11T11:19:46.069Z,12.70
2023-04-11T11:22:18.245Z,12.60
2023-04-11T11:24:45.182Z,12.60
2023-04-11T11:27:23.034Z,12.80
2023-04-11T11:29:51.505Z,12.70
2023-04-11T11:32:29.849Z,12.80
2023-04-11T11:34:58.684Z,12.90
2023-04-11T11:37:25.797Z,12.90
2023-04-11T11:39:53.265Z,12.50
2023-04-11T11:42:20.454Z,12.50
2023-04-11T11:44:47.394Z,12.40
2023-04-11T11:47:17.006Z,12.00
2023-04-11T11:49:51.122Z,12.20
2023-04-11T11:52:40.622Z,12.40
2023-04-11T11:55:27.866Z,12.30
2023-04-11T11:57:58.740Z,12.10
2023-04-11T12:00:28.104Z,12.20
2023-04-11T12:02:56.888Z,12.30
2023-04-11T12:05:32.328Z,12.20
2023-04-11T12:08:06.308Z,11.90
2023-04-11T12:10:50.262Z,12.10
2023-04-11T12:13:23.412Z,12.00
2023-04-11T12:15:56.939Z,12.10
2023-04-11T12:18:26.173Z,12.50
2023-04-11T12:20:53.496Z,12.40
2023-04-11T12:23:21.697Z,12.20
2023-04-11T12:25:48.409Z,12.30
2023-04-11T12:28:15.786Z,12.20
2023-04-11T12:30:42.579Z,12.20
2023-04-11T12:33:09.434Z,12.40
2023-04-11T12:35:36.227Z,12.60
2023-04-11T12:38:06.423Z,12.80
2023-04-11T12:40:33.272Z,12.80
2023-04-11T12:42:59.954Z,13.20
2023-04-11T12:45:29.928Z,13.10
2023-04-11T12:47:56.683Z,13.10
2023-04-11T12:50:24.013Z,13.10
2023-04-11T12:52:51.666Z,13.30
2023-04-11T12:55:18.587Z,13.50
2023-04-11T12:57:45.582Z,13.60
2023-04-11T13:00:15.912Z,13.60
2023-04-11T13:02:45.545Z,13.50
2023-04-11T13:05:15.676Z,13.60
2023-04-11T13:07:44.948Z,13.50
2023-04-11T13:10:13.727Z,13.50
2023-04-11T13:12:43.710Z,13.60
2023-04-11T13:15:17.162Z,13.50
2023-04-11T13:17:44.134Z,13.30
2023-04-11T13:20:12.402Z,13.50
2023-04-11T13:22:42.938Z,13.50
2023-04-11T13:25:12.085Z,13.50
2023-04-11T13:27:40.058Z,13.50
2023-04-11T13:30:08.467Z,13.50
2023-04-11T13:32:36.650Z,13.70
2023-04-11T13:35:04.389Z,13.60
2023-04-11T13:37:31.173Z,13.60
2023-04-11T13:40:04.143Z,13.80
2023-04-11T13:42:31.299Z,13.70
2023-04-11T13:44:58.027Z,13.70
2023-04-11T13:47:24.784Z,13.90
2023-04-11T13:49:51.496Z,13.80
2023-04-11T13:52:18.419Z,13.90
2023-04-11T13:54:45.289Z,13.90
2023-04-11T13:57:11.990Z,13.60
2023-04-11T13:59:38.772Z,13.50
2023-04-11T14:02:05.607Z,13.60
2023-04-11T14:04:32.616Z,13.70
2023-04-11T14:06:59.373Z,13.70
2023-04-11T14:09:26.088Z,13.80
2023-04-11T14:11:52.798Z,13.70
2023-04-11T14:14:19.579Z,13.70
2023-04-11T14:16:46.402Z,13.70
2023-04-11T14:19:13.210Z,13.50
2023-04-11T14:21:40.147Z,13.70
2023-04-11T14:24:07.310Z,13.70
2023-04-11T14:26:34.111Z,13.60
2023-04-11T14:29:00.957Z,13.80
2023-04-11T14:31:28.317Z,13.80
2023-04-11T14:33:55.260Z,13.90
2023-04-11T14:36:22.117Z,14.00
2023-04-11T14:38:49.254Z,14.00
2023-04-11T14:41:16.277Z,14.00
2023-04-11T14:43:43.036Z,14.00
2023-04-11T14:46:10.334Z,14.00
2023-04-11T14:48:37.052Z,14.00
2023-04-11T14:51:04.177Z,13.80
2023-04-11T14:53:31.151Z,14.00
2023-04-11T14:55:58.947Z,14.10
2023-04-11T14:58:25.931Z,14.00
2023-04-11T15:00:52.654Z,14.10
2023-04-11T15:03:19.972Z,14.10
2023-04-11T15:05:46.895Z,14.10
2023-04-11T15:08:13.635Z,14.30
2023-04-11T15:10:40.570Z,14.50
2023-04-11T15:13:09.387Z,14.50
2023-04-11T15:15:37.168Z,14.40
2023-04-11T15:18:25.871Z,14.40
2023-04-11T15:21:01.805Z,14.10
2023-04-11T15:23:28.743Z,14.30
2023-04-11T15:26:01.500Z,14.40
2023-04-11T15:28:40.175Z,14.60
2023-04-11T15:31:09.228Z,14.80
2023-04-11T15:33:38.576Z,14.60
2023-04-11T15:36:06.522Z,14.50
2023-04-11T15:38:35.412Z,14.80
2023-04-11T15:41:04.774Z,14.80
2023-04-11T15:43:32.173Z,14.70
2023-04-11T15:46:01.679Z,14.50
2023-04-11T15:48:28.495Z,14.50
2023-04-11T15:50:55.280Z,14.60
2023-04-11T15:53:21.994Z,14.40
2023-04-11T15:55:49.160Z,14.40
2023-04-11T15:58:16.300Z,14.40
2023-04-11T16:00:43.700Z,14.50
2023-04-11T16:03:11.239Z,14.50
2023-04-11T16:05:42.680Z,14.40
2023-04-11T16:08:10.991Z,14.20
2023-04-11T16:10:37.810Z,14.10
2023-04-11T16:13:04.658Z,14.10
2023-04-11T16:15:32.151Z,14.00
2023-04-11T16:17:58.902Z,14.20
2023-04-11T16:20:25.714Z,14.10
2023-04-11T16:22:52.513Z,14.20
2023-04-11T16:25:21.244Z,14.20
2023-04-11T16:27:51.133Z,14.20
2023-04-11T16:30:17.913Z,14.20
2023-04-11T16:32:44.769Z,14.10
2023-04-11T16:35:11.906Z,14.00
2023-04-11T16:37:38.719Z,14.10
2023-04-11T16:40:13.327Z,14.30
2023-04-11T16:42:40.615Z,14.30
2023-04-11T16:45:09.812Z,14.20
2023-04-11T16:47:37.224Z,14.10
2023-04-11T16:50:05.702Z,14.20
2023-04-11T16:52:32.867Z,14.30
2023-04-11T16:54:59.616Z,14.10
2023-04-11T16:57:27.478Z,14.10
2023-04-11T16:59:54.430Z,13.90
2023-04-11T17:02:21.351Z,14.00
2023-04-11T17:04:48.243Z,13.90
2023-04-11T17:07:14.959Z,14.00
2023-04-11T17:09:43.329Z,14.00
2023-04-11T17:12:10.479Z,13.80
2023-04-11T17:14:37.384Z,13.70
2023-04-11T17:17:05.525Z,13.60
2023-04-11T17:19:32.275Z,13.50
2023-04-11T17:21:59.087Z,13.40
2023-04-11T17:24:25.863Z,13.40
2023-04-11T17:26:53.002Z,13.30
2023-04-11T17:29:20.289Z,13.20
2023-04-11T17:31:47.085Z,13.20
2023-04-11T17:34:13.988Z,13.20
2023-04-11T17:36:42.806Z,13.30
2023-04-11T17:39:17.738Z,13.20
2023-04-11T17:41:46.015Z,13.30
2023-04-11T17:44:17.865Z,13.20
2023-04-11T17:46:47.087Z,13.30
2023-04-11T17:49:15.414Z,13.40
2023-04-11T17:51:48.841Z,13.40
2023-04-11T17:54:19.521Z,13.30
2023-04-11T17:56:46.341Z,13.50
2023-04-11T17:59:13.678Z,13.50
2023-04-11T18:01:43.171Z,13.60
2023-04-11T18:04:14.625Z,13.60
2023-04-11T18:06:42.706Z,13.60
2023-04-11T18:09:09.574Z,13.80
2023-04-11T18:11:36.399Z,13.90
2023-04-11T18:14:05.165Z,14.00
2023-04-11T18:16:32.053Z,13.90
2023-04-11T18:18:58.889Z,13.90
2023-04-11T18:21:26.672Z,13.90
2023-04-11T18:23:53.514Z,13.90
2023-04-11T18:26:20.369Z,13.90
2023-04-11T18:28:47.061Z,13.90
2023-04-11T18:31:14.285Z,13.90
2023-04-11T18:33:44.874Z,13.90
2023-04-11T18:36:12.642Z,13.90
2023-04-11T18:38:39.577Z,13.90
2023-04-11T18:41:07.682Z,13.80
2023-04-11T18:43:35.335Z,13.90
2023-04-11T18:46:02.514Z,13.80
2023-04-11T18:48:32.396Z,13.70
2023-04-11T18:51:10.806Z,13.70
2023-04-11T18:53:37.532Z,13.70
2023-04-11T18:56:04.976Z,13.70
2023-04-11T18:58:34.190Z,13.70
2023-04-11T19:01:14.726Z,13.60
2023-04-11T19:03:43.507Z,13.60
2023-04-11T19:06:10.631Z,13.60
2023-04-11T19:08:38.450Z,13.70
2023-04-11T19:11:05.547Z,13.70
2023-04-11T19:13:35.885Z,13.60
2023-04-11T19:16:02.767Z,13.50
2023-04-11T19:18:32.010Z,13.50
2023-04-11T19:20:58.804Z,13.40
2023-04-11T19:23:28.493Z,13.40
2023-04-11T19:25:55.237Z,13.40
2023-04-11T19:28:21.980Z,13.40
2023-04-11T19:30:48.883Z,13.40
2023-04-11T19:33:16.102Z,13.30
2023-04-11T19:35:42.949Z,13.20
2023-04-11T19:38:09.765Z,13.30
2023-04-11T19:40:36.639Z,13.30
2023-04-11T19:43:03.986Z,13.30
2023-04-11T19:45:32.208Z,13.30
2023-04-11T19:47:59.889Z,13.20
2023-04-11T19:50:27.049Z,13.20
2023-04-11T19:52:56.843Z,13.20
2023-04-11T19:55:24.481Z,13.20
2023-04-11T19:57:51.458Z,13.20
2023-04-11T20:00:19.966Z,13.20
2023-04-11T20:02:48.932Z,13.10
2023-04-11T20:05:18.880Z,13.10
2023-04-11T20:07:48.966Z,13.10
2023-04-11T20:10:17.799Z,13.00
2023-04-11T20:12:44.628Z,13.00
2023-04-11T20:15:12.568Z,13.00
2023-04-11T20:17:39.428Z,13.00
2023-04-11T20:20:11.351Z,13.00
2023-04-11T20:22:40.239Z,12.90
2023-04-11T20:25:08.028Z,12.90
2023-04-11T20:27:34.902Z,12.80
2023-04-11T20:30:11.574Z,12.70
2023-04-11T20:32:40.468Z,12.70
2023-04-11T20:35:09.740Z,12.70
2023-04-11T20:37:36.780Z,12.70
2023-04-11T20:40:07.948Z,12.70
2023-04-11T20:42:35.447Z,12.60
2023-04-11T20:45:09.947Z,12.50
2023-04-11T20:47:38.888Z,12.50
2023-04-11T20:50:10.096Z,12.50
2023-04-11T20:52:38.028Z,12.40
2023-04-11T20:55:05.665Z,12.30
2023-04-11T20:57:33.609Z,12.20
2023-04-11T21:00:02.615Z,12.20
2023-04-11T21:02:29.505Z,12.30
2023-04-11T21:04:56.449Z,12.30
2023-04-11T21:07:23.312Z,12.20
2023-04-11T21:09:51.659Z,12.20
2023-04-11T21:12:18.448Z,12.10
2023-04-11T21:14:45.255Z,12.10
2023-04-11T21:17:12.129Z,12.10
2023-04-11T21:19:39.308Z,12.10
2023-04-11T21:22:06.311Z,12.00
2023-04-11T21:24:36.153Z,12.10
2023-04-11T21:27:03.023Z,12.10
2023-04-11T21:29:29.901Z,12.10
2023-04-11T21:31:56.700Z,12.00
2023-04-11T21:34:23.785Z,12.10
2023-04-11T21:36:50.836Z,12.10
2023-04-11T21:39:19.507Z,12.10
2023-04-11T21:41:46.257Z,12.10
2023-04-11T21:44:13.296Z,12.00
2023-04-11T21:46:40.853Z,12.00
2023-04-11T21:49:07.693Z,12.00
2023-04-11T21:51:34.484Z,12.00
2023-04-11T21:54:04.538Z,12.10
2023-04-11T21:56:31.342Z,12.10
2023-04-11T21:58:58.049Z,12.00
2023-04-11T22:01:25.034Z,12.00
2023-04-11T22:03:52.320Z,12.00
2023-04-11T22:06:19.549Z,11.90
2023-04-11T22:08:50.383Z,11.80
2023-04-11T22:11:20.391Z,11.80
2023-04-11T22:13:47.257Z,11.70
2023-04-11T22:16:14.294Z,11.60
2023-04-11T22:18:47.396Z,11.60
2023-04-11T22:21:19.373Z,11.50
2023-04-11T22:23:56.386Z,11.40
2023-04-11T22:26:29.319Z,11.50
2023-04-11T22:28:58.355Z,11.50
2023-04-11T22:31:30.327Z,11.50
2023-04-11T22:33:58.190Z,11.40
2023-04-11T22:36:25.135Z,11.30
2023-04-11T22:38:51.934Z,11.20
2023-04-11T22:41:18.974Z,11.20
2023-04-11T22:43:45.860Z,11.20
2023-04-11T22:46:13.130Z,11.20
2023-04-11T22:48:42.045Z,11.20
2023-04-11T22:51:08.849Z,11.30
2023-04-11T22:53:41.934Z,11.20
2023-04-11T22:56:12.502Z,11.20
2023-04-11T22:58:40.574Z,11.20
2023-04-11T23:01:14.508Z,11.20
2023-04-11T23:03:42.082Z,11.20
2023-04-11T23:06:09.463Z,11.10
2023-04-11T23:08:38.091Z,11.00
2023-04-11T23:11:05.120Z,11.10
2023-04-11T23:13:32.071Z,11.00
2023-04-11T23:16:03.085Z,10.90
2023-04-11T23:18:29.819Z,10.90
2023-04-11T23:20:56.829Z,10.90
2023-04-11T23:23:23.624Z,10.80
2023-04-11T23:25:50.381Z,10.80
2023-04-11T23:28:17.440Z,10.90
2023-04-11T23:30:46.609Z,10.80
2023-04-11T23:33:13.826Z,10.80
2023-04-11T23:35:40.559Z,10.70
2023-04-11T23:38:07.669Z,10.70
2023-04-11T23:40:34.379Z,10.80
2023-04-11T23:43:02.159Z,10.70
2023-04-11T23:45:28.965Z,10.70
2023-04-11T23:47:56.145Z,10.80
2023-04-11T23:50:23.029Z,10.70
2023-04-11T23:52:49.973Z,10.60
2023-04-11T23:55:16.724Z,10.50
2023-04-11T23:57:43.593Z,10.50
